Time;durP1;ratioP1;P1;durP2;ratioP2;P2;SDS_P1;SDS_P2;PMS_P1;PMS_P2;Temp;Humidity;BMP_temperature;BMP_pressure;BME280_temperature;BME280_humidity;BME280_pressure;Samples;Min_cycle;Max_cycle;Signal;HPM_P1;HPM_P2
2022/08/09 00:02:30;;;;;;;12.70;2.90;;;18.20;99.90;;;;;;4980904;28;20812;-83
2022/08/09 00:04:58;;;;;;;2.53;2.33;;;18.30;99.90;;;;;;4974403;28;20456;-83
2022/08/09 00:07:45;;;;;;;2.47;2.27;;;18.20;99.90;;;;;;4981460;28;20440;-82
2022/08/09 00:10:12;;;;;;;1.80;1.70;;;18.10;99.90;;;;;;4977576;28;20452;-83
2022/08/09 00:12:48;;;;;;;1.93;1.83;;;18.10;99.90;;;;;;4980648;28;20422;-82
2022/08/09 00:15:23;;;;;;;4.40;1.90;;;18.00;99.90;;;;;;4984943;28;20834;-82
2022/08/09 00:18:09;;;;;;;2.13;1.97;;;18.20;99.90;;;;;;4984736;28;20420;-83
2022/08/09 00:20:40;;;;;;;2.13;2.03;;;18.10;99.90;;;;;;4986835;28;20543;-83
2022/08/09 00:23:16;;;;;;;2.33;2.13;;;17.90;99.90;;;;;;4981794;28;20464;-83
2022/08/09 00:26:07;;;;;;;2.30;2.10;;;18.00;99.90;;;;;;4965745;28;20429;-83
2022/08/09 00:28:40;;;;;;;2.30;2.10;;;18.00;99.90;;;;;;4979911;28;20654;-83
2022/08/09 00:31:22;;;;;;;2.43;2.20;;;18.10;99.90;;;;;;4980071;28;21053;-81
2022/08/09 00:34:09;;;;;;;5.07;2.77;;;17.90;99.90;;;;;;4974686;28;20436;-83
2022/08/09 00:36:38;;;;;;;2.13;2.03;;;18.20;99.90;;;;;;4964934;28;20459;-82
2022/08/09 00:39:09;;;;;;;3.30;2.17;;;18.10;99.90;;;;;;4970373;28;20423;-82
2022/08/09 00:41:56;;;;;;;3.20;2.67;;;18.00;99.90;;;;;;4973133;28;20483;-79
2022/08/09 00:44:43;;;;;;;4.20;2.67;;;17.90;99.90;;;;;;4980519;28;20484;-81
2022/08/09 00:47:13;;;;;;;4.73;2.83;;;17.90;99.90;;;;;;4979605;28;20449;-81
2022/08/09 00:49:41;;;;;;;2.83;2.57;;;18.00;99.90;;;;;;4979501;28;20456;-80
2022/08/09 00:52:21;;;;;;;2.73;2.27;;;18.10;99.90;;;;;;4980503;28;20699;-83
2022/08/09 00:55:00;;;;;;;4.37;2.30;;;18.10;99.90;;;;;;4978587;28;20502;-81
2022/08/09 00:57:29;;;;;;;7.10;3.00;;;17.90;99.90;;;;;;4980128;28;20444;-81
2022/08/09 01:00:08;;;;;;;4.63;2.37;;;18.00;99.90;;;;;;4979435;28;20499;-81
2022/08/09 01:02:52;;;;;;;2.70;2.50;;;17.90;99.90;;;;;;4978508;28;20500;-80
2022/08/09 01:05:41;;;;;;;2.53;2.33;;;17.80;99.90;;;;;;4971205;28;20520;-81
2022/08/09 01:08:47;;;;;;;3.27;2.70;;;17.70;99.90;;;;;;4977912;28;20600;-84
2022/08/09 01:11:36;;;;;;;2.33;2.17;;;17.60;99.90;;;;;;4974819;28;20773;-80
2022/08/09 01:14:32;;;;;;;3.13;2.50;;;17.50;99.90;;;;;;4973493;28;20469;-81
2022/08/09 01:17:15;;;;;;;2.47;2.27;;;17.60;99.90;;;;;;4978083;28;20444;-81
2022/08/09 01:20:40;;;;;;;2.67;2.30;;;17.70;99.90;;;;;;4978439;28;20468;-83
2022/08/09 01:23:26;;;;;;;2.43;2.30;;;17.70;99.90;;;;;;4895130;29;20471;-81
2022/08/09 01:26:49;;;;;;;2.37;2.20;;;17.40;99.90;;;;;;4974599;28;20407;-81
2022/08/09 01:29:26;;;;;;;4.30;3.30;;;17.40;99.90;;;;;;4976589;28;20440;-81
2022/08/09 01:32:09;;;;;;;3.30;2.87;;;17.60;99.90;;;;;;4977192;28;20414;-81
2022/08/09 01:35:00;;;;;;;2.83;2.63;;;17.40;99.90;;;;;;4978766;28;20648;-82
2022/08/09 01:37:52;;;;;;;3.17;2.53;;;17.20;99.90;;;;;;4970987;28;20440;-81
2022/08/09 01:40:41;;;;;;;2.73;2.53;;;17.20;99.90;;;;;;4978066;28;21083;-81
2022/08/09 01:43:10;;;;;;;2.87;2.67;;;17.30;99.90;;;;;;4980803;28;20421;-80
2022/08/09 01:45:40;;;;;;;2.63;2.43;;;17.30;99.90;;;;;;4986086;28;20451;-77
2022/08/09 01:48:15;;;;;;;4.10;2.80;;;17.30;99.90;;;;;;4981943;28;20875;-82
2022/08/09 01:50:48;;;;;;;2.70;2.50;;;17.50;99.90;;;;;;4979212;28;20447;-81
2022/08/09 01:53:22;;;;;;;2.30;2.10;;;17.50;99.90;;;;;;4980067;28;20579;-83
2022/08/09 01:55:55;;;;;;;2.07;1.90;;;17.50;99.90;;;;;;4978800;28;20585;-83
2022/08/09 01:58:26;;;;;;;3.73;2.70;;;17.40;99.90;;;;;;4986836;28;20800;-81
2022/08/09 02:00:55;;;;;;;2.30;2.10;;;17.40;99.90;;;;;;4984522;28;20415;-81
2022/08/09 02:03:24;;;;;;;4.03;3.17;;;17.40;99.90;;;;;;4993625;28;20459;-80
2022/08/09 02:05:54;;;;;;;3.80;2.50;;;17.50;99.90;;;;;;4980070;28;20440;-80
2022/08/09 02:08:38;;;;;;;2.97;2.73;;;17.50;99.90;;;;;;4977636;28;20448;-80
2022/08/09 02:11:27;;;;;;;5.80;3.17;;;17.40;99.90;;;;;;4977931;28;20478;-80
2022/08/09 02:14:11;;;;;;;2.57;2.37;;;17.40;99.90;;;;;;4978353;28;20908;-81
2022/08/09 02:16:54;;;;;;;2.43;2.30;;;17.40;99.90;;;;;;4977690;28;20452;-81
2022/08/09 02:19:43;;;;;;;3.03;2.77;;;17.40;99.90;;;;;;4978066;28;20779;-82
2022/08/09 02:22:31;;;;;;;2.73;2.43;;;17.40;99.90;;;;;;4977202;28;20530;-80
2022/08/09 02:25:08;;;;;;;2.70;2.50;;;17.50;99.90;;;;;;4974998;28;20452;-81
2022/08/09 02:27:46;;;;;;;3.03;2.57;;;17.50;99.90;;;;;;4977015;28;20696;-81
2022/08/09 02:30:31;;;;;;;3.50;2.33;;;17.60;99.90;;;;;;4976588;28;20456;-80
2022/08/09 02:33:00;;;;;;;7.03;2.77;;;17.70;99.90;;;;;;4973332;28;20658;-82
2022/08/09 02:35:30;;;;;;;2.80;2.60;;;17.80;99.90;;;;;;4960160;28;20456;-81
2022/08/09 02:38:25;;;;;;;3.20;2.93;;;17.80;99.90;;;;;;4977987;28;20436;-81
2022/08/09 02:41:07;;;;;;;3.20;2.90;;;17.70;99.90;;;;;;4977608;28;20444;-82
2022/08/09 02:43:36;;;;;;;3.00;2.73;;;17.70;99.90;;;;;;4978868;28;20443;-82
2022/08/09 02:46:23;;;;;;;2.83;2.60;;;17.70;99.90;;;;;;4980252;28;20754;-81
2022/08/09 02:48:51;;;;;;;2.60;2.40;;;17.60;99.90;;;;;;4991311;28;20495;-80
2022/08/09 02:51:21;;;;;;;4.23;2.90;;;17.60;99.90;;;;;;5000530;28;20426;-80
2022/08/09 02:53:57;;;;;;;7.70;2.93;;;17.80;99.90;;;;;;4984077;28;20428;-81
2022/08/09 02:56:29;;;;;;;5.20;2.43;;;17.80;99.90;;;;;;4993268;28;20437;-81
2022/08/09 02:58:56;;;;;;;2.93;2.60;;;17.90;99.90;;;;;;4994565;28;20464;-81
2022/08/09 03:01:26;;;;;;;3.50;3.20;;;17.80;99.90;;;;;;4994666;28;20466;-83
2022/08/09 03:04:11;;;;;;;3.40;3.10;;;17.80;99.90;;;;;;4994559;28;20487;-82
2022/08/09 03:06:47;;;;;;;3.30;3.00;;;17.70;99.90;;;;;;4992857;28;20516;-81
2022/08/09 03:09:19;;;;;;;2.73;2.60;;;17.70;99.90;;;;;;4991013;28;20505;-82
2022/08/09 03:11:48;;;;;;;2.93;2.67;;;17.70;99.90;;;;;;4981043;28;20447;-80
2022/08/09 03:14:39;;;;;;;3.10;2.80;;;17.50;99.90;;;;;;4994663;28;20424;-80
2022/08/09 03:17:07;;;;;;;4.73;4.07;;;17.50;99.90;;;;;;4994396;28;20487;-82
2022/08/09 03:19:59;;;;;;;3.87;3.47;;;17.50;99.90;;;;;;4984653;28;20444;-83
2022/08/09 03:22:34;;;;;;;4.17;3.00;;;17.20;99.90;;;;;;4980888;28;20553;-80
2022/08/09 03:25:10;;;;;;;3.20;2.90;;;17.20;99.90;;;;;;4965049;28;20443;-82
2022/08/09 03:27:59;;;;;;;3.20;2.87;;;17.20;99.90;;;;;;4962083;28;20502;-82
2022/08/09 03:30:28;;;;;;;3.57;3.23;;;17.20;99.90;;;;;;4978904;28;20639;-84
2022/08/09 03:33:06;;;;;;;7.30;3.70;;;17.10;99.90;;;;;;4970950;28;20432;-83
2022/08/09 03:35:46;;;;;;;3.90;3.50;;;17.00;99.90;;;;;;4966084;28;20451;-84
2022/08/09 03:38:34;;;;;;;3.60;3.30;;;16.80;99.90;;;;;;4980833;28;20451;-82
2022/08/09 03:41:09;;;;;;;2.87;2.63;;;16.50;99.90;;;;;;4982728;28;20489;-82
2022/08/09 03:43:45;;;;;;;4.27;3.93;;;16.60;99.90;;;;;;4982475;28;20439;-84
2022/08/09 03:46:32;;;;;;;3.73;3.37;;;16.60;99.90;;;;;;4981457;28;20915;-82
2022/08/09 03:49:02;;;;;;;4.00;3.70;;;16.60;99.90;;;;;;4981491;28;20471;-81
2022/08/09 03:51:40;;;;;;;4.13;3.73;;;16.70;99.90;;;;;;4982305;28;20444;-82
2022/08/09 03:54:33;;;;;;;2.80;2.60;;;16.80;99.90;;;;;;4980978;28;20447;-82
2022/08/09 03:57:10;;;;;;;4.03;3.63;;;16.90;99.90;;;;;;4981250;28;20492;-83
2022/08/09 03:59:50;;;;;;;5.77;5.27;;;17.00;99.90;;;;;;4982847;28;20449;-83
2022/08/09 04:02:25;;;;;;;4.00;3.70;;;17.10;99.90;;;;;;4959525;28;20546;-82
2022/08/09 04:04:58;;;;;;;4.83;4.40;;;17.20;99.90;;;;;;4972168;28;20455;-81
2022/08/09 04:07:28;;;;;;;5.80;4.17;;;17.20;99.90;;;;;;4995111;28;20496;-81
2022/08/09 04:10:16;;;;;;;4.10;3.70;;;17.00;99.90;;;;;;4982600;28;20511;-82
2022/08/09 04:12:49;;;;;;;4.50;3.70;;;16.80;99.90;;;;;;4966901;28;20442;-81
2022/08/09 04:15:20;;;;;;;4.37;3.37;;;16.70;99.90;;;;;;4983443;28;20536;-83
2022/08/09 04:18:07;;;;;;;4.67;3.73;;;16.80;99.90;;;;;;4984042;28;20443;-81
2022/08/09 04:20:42;;;;;;;5.77;4.10;;;16.90;99.90;;;;;;4982476;28;20743;-81
2022/08/09 04:23:10;;;;;;;4.60;3.50;;;16.80;99.90;;;;;;4979481;28;20839;-79
2022/08/09 04:25:45;;;;;;;3.90;3.57;;;16.80;99.90;;;;;;4979649;28;20483;-80
2022/08/09 04:28:20;;;;;;;5.60;5.10;;;16.80;99.90;;;;;;4973374;28;20557;-80
2022/08/09 04:31:02;;;;;;;3.93;3.63;;;16.80;99.90;;;;;;4977154;28;20453;-83
2022/08/09 04:33:36;;;;;;;5.90;5.33;;;16.80;99.90;;;;;;4965939;28;20797;-81
2022/08/09 04:36:24;;;;;;;7.40;5.47;;;16.70;99.90;;;;;;4980300;28;20525;-82
2022/08/09 04:38:56;;;;;;;6.70;4.13;;;16.60;99.90;;;;;;4979534;28;20780;-82
2022/08/09 04:41:26;;;;;;;8.93;6.70;;;16.70;99.90;;;;;;4981576;28;20507;-81
2022/08/09 04:44:03;;;;;;;5.37;4.87;;;16.90;99.90;;;;;;4979862;28;20570;-82
2022/08/09 04:46:38;;;;;;;5.37;4.87;;;17.20;99.90;;;;;;4979178;28;20508;-81
2022/08/09 04:49:31;;;;;;;7.30;4.93;;;17.50;99.90;;;;;;4973518;28;20786;-83
2022/08/09 04:52:30;;;;;;;6.57;4.30;;;17.70;99.90;;;;;;4979651;28;20447;-83
2022/08/09 04:54:59;;;;;;;5.97;4.93;;;17.90;99.90;;;;;;4969889;28;20429;-81
2022/08/09 04:57:27;;;;;;;5.90;4.20;;;18.20;99.90;;;;;;4979974;28;20427;-81
2022/08/09 05:00:14;;;;;;;4.40;3.50;;;18.40;99.90;;;;;;4980389;28;20441;-82
2022/08/09 05:02:43;;;;;;;5.47;4.60;;;18.40;99.90;;;;;;4974086;28;20484;-82
2022/08/09 05:05:18;;;;;;;6.27;4.23;;;18.50;99.90;;;;;;4980353;28;20494;-80
2022/08/09 05:07:58;;;;;;;5.20;4.23;;;18.70;99.90;;;;;;4982311;28;20564;-81
2022/08/09 05:10:26;;;;;;;7.90;4.80;;;19.00;99.90;;;;;;4984530;28;20444;-81
2022/08/09 05:12:53;;;;;;;10.27;4.33;;;19.30;99.90;;;;;;4976566;28;20451;-81
2022/08/09 05:15:20;;;;;;;4.83;4.23;;;19.50;99.90;;;;;;4981424;28;20440;-80
2022/08/09 05:18:07;;;;;;;6.73;4.27;;;19.60;99.90;;;;;;4978995;28;20415;-82
2022/08/09 05:20:58;;;;;;;4.60;4.20;;;19.50;99.90;;;;;;4982811;28;20879;-82
2022/08/09 05:23:36;;;;;;;3.57;3.27;;;19.40;99.90;;;;;;4980518;28;20553;-83
2022/08/09 05:26:23;;;;;;;4.23;3.93;;;19.40;99.90;;;;;;4976734;28;20440;-82
2022/08/09 05:29:03;;;;;;;4.67;3.63;;;19.40;99.90;;;;;;4977653;28;20504;-80
2022/08/09 05:31:30;;;;;;;7.33;3.80;;;19.40;99.90;;;;;;4979090;28;20425;-83
2022/08/09 05:34:10;;;;;;;5.17;4.50;;;19.60;99.90;;;;;;4979029;28;20444;-83
2022/08/09 05:36:43;;;;;;;5.97;5.00;;;19.80;99.90;;;;;;4963396;28;20407;-82
2022/08/09 05:39:14;;;;;;;9.43;4.30;;;20.00;99.90;;;;;;4978003;28;20573;-83
2022/08/09 05:41:54;;;;;;;12.10;5.43;;;20.00;99.90;;;;;;4964038;28;20446;-81
2022/08/09 05:44:21;;;;;;;5.07;3.97;;;20.10;99.90;;;;;;4977024;28;20453;-81
2022/08/09 05:46:58;;;;;;;4.40;4.00;;;20.30;99.90;;;;;;4974625;28;20423;-81
2022/08/09 05:49:25;;;;;;;6.20;4.00;;;20.50;99.90;;;;;;4978541;28;20445;-82
2022/08/09 05:52:12;;;;;;;5.93;4.20;;;20.80;99.90;;;;;;4964698;28;20486;-81
2022/08/09 05:54:41;;;;;;;6.67;4.80;;;21.00;99.90;;;;;;4967298;28;20428;-81
2022/08/09 05:57:08;;;;;;;5.80;4.23;;;21.00;99.90;;;;;;4982139;28;20442;-80
2022/08/09 05:59:39;;;;;;;4.13;3.80;;;20.80;99.90;;;;;;4984532;28;20441;-79
2022/08/09 06:02:08;;;;;;;5.20;4.27;;;20.60;99.90;;;;;;4983391;28;20821;-79
2022/08/09 06:04:35;;;;;;;4.20;3.90;;;20.60;99.90;;;;;;4984009;28;20461;-81
2022/08/09 06:07:10;;;;;;;6.70;4.00;;;20.90;99.90;;;;;;4985480;28;20447;-80
2022/08/09 06:09:47;;;;;;;4.50;4.10;;;20.90;99.90;;;;;;4988850;28;20399;-82
2022/08/09 06:12:29;;;;;;;5.37;3.73;;;20.80;99.90;;;;;;4981138;28;20427;-80
2022/08/09 06:14:56;;;;;;;5.23;3.90;;;20.90;99.90;;;;;;4985314;28;20477;-81
2022/08/09 06:17:28;;;;;;;4.70;4.20;;;20.80;99.90;;;;;;4984075;28;20480;-82
2022/08/09 06:20:07;;;;;;;3.60;3.30;;;21.00;99.90;;;;;;4982887;28;20427;-80
2022/08/09 06:22:34;;;;;;;4.70;3.97;;;21.20;99.90;;;;;;4990603;28;20521;-80
2022/08/09 06:25:02;;;;;;;6.40;4.30;;;21.10;99.90;;;;;;4992985;28;20450;-80
2022/08/09 06:27:29;;;;;;;4.37;3.97;;;21.20;99.90;;;;;;4993495;28;20477;-79
2022/08/09 06:30:09;;;;;;;7.20;3.63;;;21.30;99.90;;;;;;4989937;28;20426;-78
2022/08/09 06:32:41;;;;;;;4.50;3.53;;;21.30;99.90;;;;;;4992296;28;20426;-80
2022/08/09 06:35:27;;;;;;;7.30;3.90;;;21.70;99.90;;;;;;4983171;28;20524;-81
2022/08/09 06:38:14;;;;;;;4.47;3.43;;;21.80;99.90;;;;;;4996498;28;20423;-79
2022/08/09 06:40:43;;;;;;;3.43;3.10;;;21.80;99.90;;;;;;4991782;28;20446;-79
2022/08/09 06:43:12;;;;;;;3.73;3.43;;;21.80;99.90;;;;;;4987312;28;20460;-79
2022/08/09 06:45:39;;;;;;;5.23;3.17;;;21.50;99.90;;;;;;4986561;28;20449;-79
2022/08/09 06:48:27;;;;;;;3.60;3.30;;;21.50;99.90;;;;;;4963733;28;20405;-79
2022/08/09 06:50:58;;;;;;;4.53;4.13;;;21.70;99.90;;;;;;4981414;28;20417;-82
2022/08/09 06:53:27;;;;;;;3.90;3.60;;;21.70;99.90;;;;;;4971944;28;20423;-82
2022/08/09 06:56:05;;;;;;;7.20;3.10;;;22.00;99.90;;;;;;4987489;28;20424;-80
2022/08/09 06:58:34;;;;;;;3.60;2.37;;;22.00;99.90;;;;;;4991580;28;20413;-81
2022/08/09 07:01:24;;;;;;;4.60;3.53;;;21.90;99.90;;;;;;4973196;28;20490;-81
2022/08/09 07:04:11;;;;;;;3.50;3.20;;;21.80;99.90;;;;;;4985597;28;20544;-81
2022/08/09 07:06:46;;;;;;;3.40;3.10;;;21.70;99.90;;;;;;4973098;28;20446;-80
2022/08/09 07:09:18;;;;;;;5.07;4.57;;;21.70;99.90;;;;;;4980647;28;20787;-82
2022/08/09 07:12:06;;;;;;;3.43;2.53;;;22.20;99.90;;;;;;4976975;28;20446;-79
2022/08/09 07:14:43;;;;;;;3.50;3.20;;;22.60;99.90;;;;;;4982301;28;20422;-79
2022/08/09 07:17:16;;;;;;;7.90;3.50;;;22.70;99.90;;;;;;4982084;28;20482;-80
2022/08/09 07:19:43;;;;;;;4.70;4.30;;;22.60;99.90;;;;;;4980397;28;20405;-79
2022/08/09 07:22:17;;;;;;;4.23;2.60;;;22.40;99.90;;;;;;4981185;28;20474;-80
2022/08/09 07:24:43;;;;;;;4.73;3.30;;;22.50;99.90;;;;;;4971718;28;20444;-80
2022/08/09 07:27:15;;;;;;;4.33;2.90;;;22.70;99.90;;;;;;4980380;28;20507;-81
2022/08/09 07:29:54;;;;;;;5.57;3.90;;;22.70;99.90;;;;;;4976993;28;20411;-79
2022/08/09 07:32:24;;;;;;;5.03;4.00;;;22.70;99.90;;;;;;4982834;28;20445;-82
2022/08/09 07:35:03;;;;;;;2.70;2.50;;;22.80;99.90;;;;;;4973950;28;20513;-79
2022/08/09 07:37:41;;;;;;;8.13;2.70;;;22.70;99.90;;;;;;4972545;28;20419;-80
2022/08/09 07:40:12;;;;;;;2.57;2.33;;;22.90;99.90;;;;;;4982127;28;20414;-83
2022/08/09 07:42:51;;;;;;;3.07;2.87;;;22.90;99.90;;;;;;4981192;28;20521;-83
2022/08/09 07:45:24;;;;;;;2.70;2.50;;;23.00;99.90;;;;;;4964795;28;20840;-81
2022/08/09 07:48:08;;;;;;;5.13;2.60;;;23.00;99.90;;;;;;4976897;28;20779;-81
2022/08/09 07:50:56;;;;;;;3.00;2.70;;;23.10;99.90;;;;;;4975227;28;20403;-83
2022/08/09 07:53:44;;;;;;;3.07;2.73;;;23.10;99.90;;;;;;4995784;28;20419;-81
2022/08/09 07:56:32;;;;;;;3.40;2.33;;;23.30;99.90;;;;;;4981332;28;20826;-81
2022/08/09 07:58:59;;;;;;;2.30;2.13;;;23.30;99.90;;;;;;4979082;28;20476;-84
2022/08/09 08:01:26;;;;;;;4.63;2.30;;;23.40;99.90;;;;;;4984369;28;20462;-83
2022/08/09 08:04:01;;;;;;;2.40;2.20;;;23.90;99.90;;;;;;4983781;28;20454;-80
2022/08/09 08:06:29;;;;;;;3.03;2.17;;;24.30;99.90;;;;;;4987213;28;20427;-81
2022/08/09 08:08:58;;;;;;;4.60;2.10;;;24.60;99.90;;;;;;4974647;28;20766;-80
2022/08/09 08:11:30;;;;;;;2.43;2.23;;;24.60;99.90;;;;;;4983501;28;20421;-80
2022/08/09 08:14:17;;;;;;;3.00;2.80;;;24.40;99.90;;;;;;4992507;28;20431;-79
2022/08/09 08:16:47;;;;;;;5.23;2.10;;;24.00;99.90;;;;;;4995163;28;20420;-78
2022/08/09 08:19:26;;;;;;;2.60;2.40;;;23.60;99.90;;;;;;4997151;28;20466;-80
2022/08/09 08:21:57;;;;;;;3.63;2.40;;;23.50;99.90;;;;;;4993262;28;20503;-80
2022/08/09 08:24:24;;;;;;;6.60;3.60;;;23.80;99.90;;;;;;4990531;28;20480;-82
2022/08/09 08:27:06;;;;;;;2.23;2.03;;;24.00;99.90;;;;;;4982932;28;20453;-82
2022/08/09 08:29:43;;;;;;;2.20;2.10;;;24.10;99.90;;;;;;4982149;28;20416;-79
2022/08/09 08:32:13;;;;;;;2.67;2.47;;;24.60;99.90;;;;;;4976105;28;20410;-81
2022/08/09 08:34:54;;;;;;;2.50;2.30;;;25.10;99.90;;;;;;4978557;28;20423;-82
2022/08/09 08:37:25;;;;;;;2.40;2.20;;;25.60;99.90;;;;;;4980611;28;20455;-79
2022/08/09 08:40:13;;;;;;;2.63;2.43;;;25.90;99.90;;;;;;4979542;28;20432;-80
2022/08/09 08:42:43;;;;;;;5.53;2.40;;;26.10;99.90;;;;;;4956914;28;20460;-80
2022/08/09 08:45:15;;;;;;;2.30;2.10;;;26.00;99.90;;;;;;4976964;28;20427;-82
2022/08/09 08:48:05;;;;;;;2.77;2.43;;;26.20;99.90;;;;;;4972720;28;20466;-82
2022/08/09 08:50:36;;;;;;;3.30;2.70;;;26.20;99.90;;;;;;4981016;28;20419;-81
2022/08/09 08:53:04;;;;;;;3.07;2.50;;;25.50;99.90;;;;;;4972297;28;20743;-81
2022/08/09 08:55:37;;;;;;;3.27;2.90;;;25.10;99.90;;;;;;4966906;28;20500;-80
2022/08/09 08:58:10;;;;;;;2.40;2.20;;;24.90;99.90;;;;;;4978034;28;20473;-82
2022/08/09 09:00:38;;;;;;;2.57;2.10;;;25.20;99.90;;;;;;4978072;28;20450;-79
2022/08/09 09:03:05;;;;;;;3.73;2.73;;;25.60;99.90;;;;;;4974270;28;20466;-84
2022/08/09 09:05:39;;;;;;;7.20;2.90;;;25.40;99.90;;;;;;4969279;28;20431;-82
2022/08/09 09:08:36;;;;;;;4.93;4.00;;;25.40;99.90;;;;;;4976100;28;20411;-81
2022/08/09 09:11:10;;;;;;;2.87;2.67;;;26.10;99.90;;;;;;4975677;28;20466;-81
2022/08/09 09:13:47;;;;;;;2.83;2.63;;;26.40;99.90;;;;;;4978342;28;20424;-80
2022/08/09 09:16:31;;;;;;;3.60;2.30;;;26.40;99.90;;;;;;4978686;28;20411;-80
2022/08/09 09:19:08;;;;;;;2.20;2.00;;;26.40;99.90;;;;;;4970029;28;20491;-81
2022/08/09 09:22:08;;;;;;;2.87;2.67;;;26.60;99.90;;;;;;4985815;28;20423;-82
2022/08/09 09:24:41;;;;;;;3.13;2.80;;;26.80;99.90;;;;;;4981090;28;20511;-82
2022/08/09 09:27:11;;;;;;;3.23;2.93;;;27.30;99.90;;;;;;4978949;28;20829;-81
2022/08/09 09:30:09;;;;;;;2.50;2.30;;;27.90;99.90;;;;;;4978623;28;20393;-82
2022/08/09 09:33:01;;;;;;;2.30;2.10;;;28.20;99.90;;;;;;4976690;28;20741;-81
2022/08/09 09:35:57;;;;;;;2.30;2.20;;;28.50;99.90;;;;;;4977880;28;20461;-80
2022/08/09 09:38:44;;;;;;;1.93;1.73;;;28.60;99.90;;;;;;4977283;28;20451;-80
2022/08/09 09:41:26;;;;;;;2.50;2.03;;;28.50;99.90;;;;;;4976771;28;20775;-82
2022/08/09 09:44:06;;;;;;;2.13;1.73;;;28.20;99.90;;;;;;4971606;28;20518;-83
2022/08/09 09:46:41;;;;;;;5.03;3.00;;;28.00;99.90;;;;;;4976973;28;20455;-80
2022/08/09 09:49:22;;;;;;;4.83;2.57;;;27.90;99.90;;;;;;4970418;28;20432;-81
2022/08/09 09:52:10;;;;;;;3.80;2.50;;;27.50;99.90;;;;;;4963662;28;20476;-82
2022/08/09 09:55:06;;;;;;;2.23;2.00;;;27.70;99.90;;;;;;4975660;28;20518;-82
2022/08/09 09:58:03;;;;;;;2.53;2.30;;;28.50;99.90;;;;;;4978620;28;20443;-83
2022/08/09 10:00:52;;;;;;;2.30;2.10;;;28.90;99.90;;;;;;4976996;28;20411;-82
2022/08/09 10:03:50;;;;;;;4.43;2.20;;;28.80;99.90;;;;;;4961782;28;21123;-82
2022/08/09 10:06:41;;;;;;;2.10;1.80;;;28.50;99.90;;;;;;4958715;28;20445;-82
2022/08/09 10:09:18;;;;;;;1.47;1.37;;;28.20;99.90;;;;;;4960029;28;20492;-80
2022/08/09 10:11:57;;;;;;;2.00;1.77;;;27.60;99.90;;;;;;4977003;28;20502;-79
2022/08/09 10:14:40;;;;;;;1.70;1.60;;;27.00;99.70;;;;;;4975660;28;20443;-80
2022/08/09 10:17:17;;;;;;;2.80;1.80;;;26.40;99.90;;;;;;4980836;28;20607;-80
2022/08/09 10:20:21;;;;;;;4.50;1.97;;;26.30;99.90;;;;;;4963099;28;20437;-81
2022/08/09 10:23:11;;;;;;;5.60;3.30;;;26.10;99.90;;;;;;4977312;28;20423;-80
2022/08/09 10:25:39;;;;;;;1.90;1.80;;;26.00;99.90;;;;;;4965591;28;20666;-79
2022/08/09 10:28:32;;;;;;;1.80;1.70;;;26.00;99.90;;;;;;4975467;28;21046;-78
2022/08/09 10:30:59;;;;;;;3.27;2.13;;;25.80;99.90;;;;;;4973305;28;20529;-81
2022/08/09 10:33:46;;;;;;;2.40;1.90;;;25.70;99.90;;;;;;4980639;28;20465;-82
2022/08/09 10:36:34;;;;;;;4.20;1.80;;;25.80;99.90;;;;;;4976544;28;20440;-79
2022/08/09 10:39:02;;;;;;;2.10;1.70;;;25.80;99.90;;;;;;4959485;28;20448;-79
2022/08/09 10:41:39;;;;;;;1.80;1.70;;;25.50;99.90;;;;;;4979115;28;20447;-79
2022/08/09 10:44:09;;;;;;;2.30;1.70;;;25.10;99.90;;;;;;4967801;28;20556;-79
2022/08/09 10:47:17;;;;;;;1.67;1.57;;;25.00;99.90;;;;;;4974926;28;20453;-79
2022/08/09 10:53:50;;;;;;;3.40;1.80;;;25.00;99.90;;;;;;4974170;28;20547;-80
2022/08/09 10:56:35;;;;;;;1.83;1.73;;;25.20;99.90;;;;;;4964096;28;20443;-78
2022/08/09 10:59:27;;;;;;;2.00;1.77;;;25.20;99.90;;;;;;4972613;28;20425;-80
2022/08/09 11:01:57;;;;;;;1.87;1.70;;;25.20;99.90;;;;;;4966654;28;20485;-78
2022/08/09 11:05:14;;;;;;;1.90;1.70;;;25.20;99.90;;;;;;4974269;28;20517;-79
2022/08/09 11:07:55;;;;;;;1.90;1.80;;;25.10;99.90;;;;;;4968171;28;20423;-79
2022/08/09 11:10:47;;;;;;;4.60;1.90;;;25.00;99.90;;;;;;4975514;28;20442;-82
2022/08/09 11:13:25;;;;;;;1.70;1.60;;;25.10;99.90;;;;;;4974923;28;20420;-80
2022/08/09 11:16:36;;;;;;;11.30;2.23;;;25.20;99.90;;;;;;4970693;28;20429;-80
2022/08/09 11:19:06;;;;;;;1.73;1.63;;;25.10;99.90;;;;;;4971670;28;20411;-80
2022/08/09 11:21:55;;;;;;;6.50;1.77;;;25.10;99.90;;;;;;4974900;28;20452;-80
2022/08/09 11:25:17;;;;;;;2.60;2.40;;;25.20;99.90;;;;;;4973948;28;20454;-80
2022/08/09 11:27:53;;;;;;;2.40;1.67;;;25.40;99.90;;;;;;4975601;28;20634;-79
2022/08/09 11:30:33;;;;;;;2.03;1.90;;;25.30;99.50;;;;;;4961394;28;20444;-79
2022/08/09 11:33:08;;;;;;;4.20;1.60;;;25.30;99.90;;;;;;4967988;28;20456;-79
2022/08/09 11:35:44;;;;;;;1.90;1.80;;;25.30;99.90;;;;;;4973368;28;20431;-78
2022/08/09 11:38:34;;;;;;;3.47;1.90;;;25.40;99.90;;;;;;4984629;28;20465;-80
2022/08/09 11:41:10;;;;;;;2.30;2.10;;;25.20;99.90;;;;;;4981474;28;20418;-80
2022/08/09 11:43:42;;;;;;;2.37;2.17;;;25.30;99.80;;;;;;4978064;28;20853;-81
2022/08/09 11:46:09;;;;;;;3.60;2.30;;;25.10;99.90;;;;;;4977873;28;20442;-79
2022/08/09 11:48:48;;;;;;;4.80;1.73;;;25.20;99.40;;;;;;4961903;28;20506;-79
2022/08/09 11:51:17;;;;;;;2.07;1.97;;;25.00;99.50;;;;;;4978071;28;20430;-80
2022/08/09 11:54:16;;;;;;;2.57;2.13;;;25.10;99.90;;;;;;4973890;28;20548;-80
2022/08/09 11:57:35;;;;;;;2.50;1.90;;;25.20;99.90;;;;;;4968771;28;20438;-80
2022/08/09 12:00:24;;;;;;;5.40;2.00;;;25.20;98.30;;;;;;4975106;28;20434;-80
2022/08/09 12:02:55;;;;;;;3.53;2.83;;;25.40;99.60;;;;;;4978832;28;20430;-79
2022/08/09 12:05:31;;;;;;;1.83;1.70;;;25.40;99.40;;;;;;4968770;28;20801;-80
2022/08/09 12:08:10;;;;;;;2.10;1.97;;;25.40;99.20;;;;;;4965395;28;20771;-80
2022/08/09 12:10:48;;;;;;;2.53;2.20;;;25.30;99.90;;;;;;4969752;28;20448;-80
2022/08/09 12:13:36;;;;;;;1.97;1.87;;;25.40;99.40;;;;;;4983137;28;20468;-80
2022/08/09 12:16:35;;;;;;;2.03;1.83;;;25.20;99.50;;;;;;4981952;28;20403;-78
2022/08/09 12:19:07;;;;;;;2.00;1.90;;;25.20;99.30;;;;;;4961012;28;20448;-79
2022/08/09 12:21:39;;;;;;;2.00;1.87;;;25.40;98.60;;;;;;4979130;28;20517;-80
2022/08/09 12:24:23;;;;;;;2.37;2.00;;;25.30;98.80;;;;;;4982079;28;20531;-81
2022/08/09 12:26:55;;;;;;;1.60;1.50;;;25.50;97.50;;;;;;4981726;28;20502;-81
2022/08/09 12:29:55;;;;;;;2.27;2.10;;;25.50;97.20;;;;;;4979974;28;20805;-82
2022/08/09 12:32:43;;;;;;;2.30;2.10;;;25.70;97.70;;;;;;4980123;28;20501;-81
2022/08/09 12:35:10;;;;;;;3.87;2.20;;;26.00;98.50;;;;;;4978092;28;20419;-81
2022/08/09 12:37:47;;;;;;;2.40;2.20;;;25.90;98.50;;;;;;4978562;28;20444;-81
2022/08/09 12:40:19;;;;;;;1.97;1.87;;;25.70;99.30;;;;;;4978655;28;20414;-83
2022/08/09 12:42:51;;;;;;;2.33;2.17;;;25.70;99.30;;;;;;4978609;28;20635;-81
2022/08/09 12:45:20;;;;;;;2.43;1.80;;;25.70;97.40;;;;;;4978184;28;20570;-80
2022/08/09 12:48:02;;;;;;;1.77;1.67;;;25.80;97.80;;;;;;4972843;28;20670;-79
2022/08/09 12:50:30;;;;;;;2.23;2.00;;;25.80;97.90;;;;;;4978301;28;20621;-81
2022/08/09 12:52:58;;;;;;;2.30;2.17;;;25.80;98.50;;;;;;4984200;28;20486;-80
2022/08/09 12:55:44;;;;;;;2.30;2.10;;;25.70;98.30;;;;;;4977905;28;20754;-80
2022/08/09 12:58:39;;;;;;;2.00;1.90;;;25.70;98.80;;;;;;4976243;28;20443;-81
2022/08/09 13:01:23;;;;;;;3.03;2.03;;;26.20;98.50;;;;;;4970403;28;20419;-81
2022/08/09 13:03:59;;;;;;;2.23;2.13;;;26.10;97.60;;;;;;4971076;28;20455;-79
2022/08/09 13:06:33;;;;;;;3.53;2.10;;;25.90;97.90;;;;;;4977299;28;20440;-80
2022/08/09 13:09:17;;;;;;;3.47;1.83;;;25.80;97.10;;;;;;4970661;28;20417;-80
2022/08/09 13:11:49;;;;;;;2.63;2.27;;;26.00;97.50;;;;;;4977875;28;20462;-82
2022/08/09 13:14:28;;;;;;;2.30;2.10;;;26.10;97.30;;;;;;4979024;28;20425;-79
2022/08/09 13:17:14;;;;;;;2.80;2.03;;;26.10;96.40;;;;;;4978478;28;20419;-81
2022/08/09 13:20:05;;;;;;;2.37;1.60;;;25.90;96.20;;;;;;4983257;28;20474;-80
2022/08/09 13:22:48;;;;;;;2.43;2.23;;;25.70;95.90;;;;;;4989219;28;20468;-81
2022/08/09 13:25:43;;;;;;;1.60;1.50;;;25.70;96.00;;;;;;4985711;28;20438;-82
2022/08/09 13:28:21;;;;;;;3.13;2.33;;;25.70;96.50;;;;;;4989605;28;20465;-79
2022/08/09 13:31:07;;;;;;;1.83;1.73;;;25.60;97.00;;;;;;4972670;28;20489;-81
2022/08/09 13:33:55;;;;;;;2.80;1.83;;;25.60;97.30;;;;;;4971042;28;20441;-81
2022/08/09 13:36:23;;;;;;;2.40;2.20;;;25.90;96.60;;;;;;4978228;28;20470;-80
2022/08/09 13:39:12;;;;;;;1.87;1.77;;;26.30;95.60;;;;;;4972541;28;20431;-82
2022/08/09 13:42:14;;;;;;;2.50;2.20;;;26.70;94.90;;;;;;4974600;28;20433;-80
2022/08/09 13:44:43;;;;;;;3.30;2.13;;;26.90;93.50;;;;;;4978253;28;20451;-80
2022/08/09 13:47:11;;;;;;;1.80;1.70;;;26.50;94.30;;;;;;4976994;28;20419;-81
2022/08/09 13:49:59;;;;;;;1.83;1.70;;;26.50;95.30;;;;;;4977579;28;20656;-81
2022/08/09 13:52:28;;;;;;;2.67;2.43;;;26.60;96.30;;;;;;4969556;28;20484;-80